createdAt,value
2022-12-22T00:01:17.721Z,92.90
2022-12-22T00:04:03.331Z,92.90
2022-12-22T00:06:48.690Z,92.90
2022-12-22T00:09:34.052Z,92.90
2022-12-22T00:12:20.802Z,92.90
2022-12-22T00:15:07.635Z,92.90
2022-12-22T00:17:53.240Z,92.90
2022-12-22T00:20:39.730Z,92.90
2022-12-22T00:23:27.651Z,93.00
2022-12-22T00:26:14.184Z,93.00
2022-12-22T00:29:01.835Z,93.00
2022-12-22T00:31:47.902Z,93.00
2022-12-22T00:34:34.200Z,93.00
2022-12-22T00:37:19.700Z,92.90
2022-12-22T00:40:05.056Z,92.90
2022-12-22T00:42:50.575Z,92.90
2022-12-22T00:45:38.016Z,93.00
2022-12-22T00:48:24.771Z,93.00
2022-12-22T00:51:10.213Z,93.00
2022-12-22T00:53:55.496Z,93.00
2022-12-22T00:56:41.552Z,93.00
2022-12-22T00:59:29.336Z,93.00
2022-12-22T01:02:16.324Z,93.00
2022-12-22T01:05:01.888Z,93.00
2022-12-22T01:07:48.304Z,93.00
2022-12-22T01:10:34.756Z,93.00
2022-12-22T01:13:20.339Z,93.00
2022-12-22T01:16:05.873Z,93.00
2022-12-22T01:18:52.873Z,93.00
2022-12-22T01:21:38.807Z,93.00
2022-12-22T01:24:29.815Z,93.00
2022-12-22T01:27:15.260Z,93.00
2022-12-22T01:30:00.845Z,93.00
2022-12-22T01:32:46.307Z,93.00
2022-12-22T01:35:38.886Z,93.00
2022-12-22T01:38:24.408Z,93.00
2022-12-22T01:41:10.784Z,93.00
2022-12-22T01:43:56.626Z,93.00
2022-12-22T01:46:44.694Z,93.00
2022-12-22T01:49:34.200Z,93.00
2022-12-22T01:52:21.877Z,93.00
2022-12-22T01:55:08.130Z,93.00
2022-12-22T01:57:55.311Z,93.00
2022-12-22T02:00:40.644Z,93.00
2022-12-22T02:03:34.668Z,93.00
2022-12-22T02:06:31.079Z,93.00
2022-12-22T02:09:35.353Z,93.00
2022-12-22T02:12:28.898Z,93.00
2022-12-22T02:15:20.974Z,93.00
2022-12-22T02:18:13.673Z,93.00
2022-12-22T02:21:02.233Z,93.00
2022-12-22T02:24:04.680Z,93.00
2022-12-22T02:26:54.814Z,93.00
2022-12-22T02:29:46.163Z,93.00
2022-12-22T02:32:31.736Z,93.00
2022-12-22T02:35:17.112Z,93.10
2022-12-22T02:38:10.051Z,93.10
2022-12-22T02:41:02.593Z,93.10
2022-12-22T02:44:03.253Z,93.10
2022-12-22T02:46:56.224Z,93.10
2022-12-22T02:49:46.147Z,93.10
2022-12-22T02:52:35.616Z,93.10
2022-12-22T02:55:22.076Z,93.10
2022-12-22T02:58:09.562Z,93.10
2022-12-22T03:00:56.407Z,93.10
2022-12-22T03:03:41.939Z,93.10
2022-12-22T03:06:27.603Z,93.10
2022-12-22T03:09:13.269Z,93.10
2022-12-22T03:11:59.139Z,93.00
2022-12-22T03:14:44.726Z,93.00
2022-12-22T03:17:31.726Z,93.00
2022-12-22T03:20:17.175Z,93.00
2022-12-22T03:23:02.539Z,93.10
2022-12-22T03:25:47.945Z,93.10
2022-12-22T03:28:15.866Z,93.00
2022-12-22T03:30:43.714Z,93.10
2022-12-22T03:33:12.821Z,93.10
2022-12-22T03:35:40.670Z,93.10
2022-12-22T03:38:08.429Z,93.10
2022-12-22T03:40:36.194Z,93.10
2022-12-22T03:43:21.683Z,93.10
2022-12-22T03:46:23.779Z,93.10
2022-12-22T03:49:10.928Z,93.10
2022-12-22T03:51:41.697Z,93.10
2022-12-22T03:54:10.572Z,93.10
2022-12-22T03:56:38.804Z,93.10
2022-12-22T03:59:06.800Z,93.20
2022-12-22T04:01:37.750Z,93.20
2022-12-22T04:04:07.169Z,93.20
2022-12-22T04:06:34.929Z,93.20
2022-12-22T04:09:02.969Z,93.20
2022-12-22T04:11:48.520Z,93.20
2022-12-22T04:14:16.246Z,93.20
2022-12-22T04:16:44.092Z,93.10
2022-12-22T04:19:13.286Z,93.10
2022-12-22T04:21:41.010Z,93.10
2022-12-22T04:24:09.258Z,93.10
2022-12-22T04:26:36.925Z,93.10
2022-12-22T04:29:04.880Z,93.20
2022-12-22T04:31:32.839Z,93.10
2022-12-22T04:34:00.608Z,93.10
2022-12-22T04:36:29.690Z,93.10
2022-12-22T04:38:57.390Z,93.20
2022-12-22T04:41:25.106Z,93.10
2022-12-22T04:43:52.825Z,93.20
2022-12-22T04:46:20.597Z,93.20
2022-12-22T04:48:48.466Z,93.20
2022-12-22T04:51:16.315Z,93.20
2022-12-22T04:53:45.406Z,93.20
2022-12-22T04:56:13.193Z,93.20
2022-12-22T04:58:40.939Z,93.20
2022-12-22T05:01:13.650Z,93.20
2022-12-22T05:03:41.554Z,93.20
2022-12-22T05:06:09.661Z,93.20
2022-12-22T05:08:37.860Z,93.20
2022-12-22T05:11:07.622Z,93.20
2022-12-22T05:13:35.492Z,93.20
2022-12-22T05:16:07.640Z,93.20
2022-12-22T05:18:36.270Z,93.20
2022-12-22T05:21:05.519Z,93.20
2022-12-22T05:23:33.334Z,93.20
2022-12-22T05:26:01.085Z,93.20
2022-12-22T05:28:32.072Z,93.20
2022-12-22T05:31:05.494Z,93.20
2022-12-22T05:33:33.572Z,93.20
2022-12-22T05:36:01.695Z,93.20
2022-12-22T05:38:29.476Z,93.20
2022-12-22T05:41:03.523Z,93.20
2022-12-22T05:43:33.917Z,93.20
2022-12-22T05:46:03.742Z,93.20
2022-12-22T05:48:37.465Z,93.30
2022-12-22T05:51:07.512Z,93.20
2022-12-22T05:53:35.447Z,93.30
2022-12-22T05:56:03.255Z,93.30
2022-12-22T05:58:31.045Z,93.20
2022-12-22T06:01:00.860Z,93.20
2022-12-22T06:03:29.367Z,93.30
2022-12-22T06:05:57.908Z,93.20
2022-12-22T06:08:26.060Z,93.20
2022-12-22T06:10:56.002Z,93.20
2022-12-22T06:13:23.745Z,93.20
2022-12-22T06:15:51.518Z,93.20
2022-12-22T06:18:20.731Z,93.20
2022-12-22T06:20:48.790Z,93.20
2022-12-22T06:23:16.708Z,93.20
2022-12-22T06:25:44.452Z,93.30
2022-12-22T06:28:12.274Z,93.30
2022-12-22T06:30:40.410Z,93.30
2022-12-22T06:33:08.243Z,93.30
2022-12-22T06:35:37.750Z,93.30
2022-12-22T06:38:05.516Z,93.30
2022-12-22T06:40:33.262Z,93.30
2022-12-22T06:43:10.077Z,93.30
2022-12-22T06:45:39.979Z,93.30
2022-12-22T06:48:08.426Z,93.30
2022-12-22T06:50:37.906Z,93.30
2022-12-22T06:53:06.426Z,93.30
2022-12-22T06:55:34.149Z,93.30
2022-12-22T06:58:02.275Z,93.30
2022-12-22T07:00:30.179Z,93.30
2022-12-22T07:02:58.194Z,93.60
2022-12-22T07:05:26.281Z,93.60
2022-12-22T07:07:55.315Z,93.30
2022-12-22T07:10:43.061Z,93.30
2022-12-22T07:13:20.247Z,93.30
2022-12-22T07:15:55.460Z,93.30
2022-12-22T07:18:27.672Z,93.30
2022-12-22T07:20:55.802Z,93.30
2022-12-22T07:23:25.545Z,93.30
2022-12-22T07:25:53.796Z,93.30
2022-12-22T07:28:21.665Z,93.30
2022-12-22T07:30:49.622Z,93.30
2022-12-22T07:33:17.861Z,93.30
2022-12-22T07:35:46.036Z,93.30
2022-12-22T07:38:14.099Z,93.30
2022-12-22T07:40:47.990Z,93.30
2022-12-22T07:43:19.368Z,93.30
2022-12-22T07:45:47.319Z,93.30
2022-12-22T07:48:29.095Z,93.30
2022-12-22T07:51:02.889Z,93.30
2022-12-22T07:53:30.627Z,93.30
2022-12-22T07:56:03.692Z,93.30
2022-12-22T07:58:31.584Z,93.30
2022-12-22T08:01:00.752Z,93.30
2022-12-22T08:03:28.806Z,93.30
2022-12-22T08:05:56.743Z,93.30
2022-12-22T08:08:24.542Z,93.30
2022-12-22T08:10:52.273Z,93.30
2022-12-22T08:13:21.457Z,93.30
2022-12-22T08:15:49.370Z,93.30
2022-12-22T08:18:17.179Z,93.30
2022-12-22T08:20:50.347Z,93.30
2022-12-22T08:23:19.110Z,93.30
2022-12-22T08:25:49.646Z,93.30
2022-12-22T08:28:17.919Z,93.30
2022-12-22T08:30:47.538Z,93.30
2022-12-22T08:33:15.713Z,93.30
2022-12-22T08:35:44.124Z,93.30
2022-12-22T08:38:12.736Z,93.30
2022-12-22T08:40:40.537Z,93.30
2022-12-22T08:43:10.906Z,93.30
2022-12-22T08:45:39.024Z,93.40
2022-12-22T08:48:08.181Z,93.30
2022-12-22T08:50:36.032Z,93.30
2022-12-22T08:53:04.700Z,93.30
2022-12-22T08:55:32.868Z,93.30
2022-12-22T08:58:01.023Z,93.30
2022-12-22T09:00:28.891Z,93.30
2022-12-22T09:02:56.697Z,93.30
2022-12-22T09:05:25.851Z,93.30
2022-12-22T09:07:53.650Z,93.30
2022-12-22T09:10:21.425Z,93.30
2022-12-22T09:12:51.175Z,93.30
2022-12-22T09:15:19.277Z,93.30
2022-12-22T09:17:48.184Z,93.40
2022-12-22T09:20:16.204Z,93.40
2022-12-22T09:22:45.301Z,93.40
2022-12-22T09:25:14.248Z,93.40
2022-12-22T09:27:42.026Z,93.40
2022-12-22T09:30:10.751Z,93.40
2022-12-22T09:32:38.500Z,93.40
2022-12-22T09:35:07.007Z,93.50
2022-12-22T09:37:34.830Z,93.50
2022-12-22T09:40:04.184Z,93.50
2022-12-22T09:42:35.388Z,93.50
2022-12-22T09:45:03.843Z,93.60
2022-12-22T09:47:37.857Z,93.50
2022-12-22T09:50:08.978Z,93.50
2022-12-22T09:52:47.751Z,93.50
2022-12-22T09:55:29.417Z,93.50
2022-12-22T09:57:59.369Z,93.50
2022-12-22T10:00:28.346Z,93.50
2022-12-22T10:03:02.680Z,93.50
2022-12-22T10:05:40.583Z,93.50
2022-12-22T10:08:14.970Z,93.50
2022-12-22T10:10:44.092Z,93.50
2022-12-22T10:13:18.580Z,93.50
2022-12-22T10:15:46.998Z,93.50
2022-12-22T10:18:17.069Z,93.40
2022-12-22T10:20:47.985Z,93.50
2022-12-22T10:23:18.909Z,93.40
2022-12-22T10:28:59.318Z,93.40
2022-12-22T10:31:29.064Z,93.40
2022-12-22T10:34:10.270Z,93.50
2022-12-22T10:36:39.330Z,93.40
2022-12-22T10:39:10.002Z,93.40
2022-12-22T10:41:42.935Z,93.50
2022-12-22T10:44:21.708Z,93.50
2022-12-22T10:46:51.649Z,93.50
2022-12-22T10:49:22.933Z,93.60
2022-12-22T10:51:54.772Z,93.50
2022-12-22T10:54:31.504Z,93.50
2022-12-22T10:57:30.721Z,93.50
2022-12-22T11:00:00.143Z,93.50
2022-12-22T11:02:31.760Z,93.60
2022-12-22T11:05:05.967Z,93.60
2022-12-22T11:07:35.717Z,93.60
2022-12-22T11:10:08.631Z,93.70
2022-12-22T11:12:50.601Z,93.60
2022-12-22T11:15:27.842Z,93.60
2022-12-22T11:18:03.789Z,93.60
2022-12-22T11:20:47.126Z,93.60
2022-12-22T11:23:22.266Z,93.60
2022-12-22T11:26:00.267Z,93.60
2022-12-22T11:28:42.819Z,93.60
2022-12-22T11:31:24.104Z,93.60
2022-12-22T11:34:04.749Z,93.70
2022-12-22T11:36:43.600Z,93.70
2022-12-22T11:39:16.423Z,93.90
2022-12-22T11:42:01.939Z,93.50
2022-12-22T11:44:42.278Z,93.50
2022-12-22T11:47:20.964Z,93.50
2022-12-22T11:50:59.426Z,93.40
2022-12-22T11:53:01.847Z,93.40
2022-12-22T11:55:34.660Z,93.30
2022-12-22T11:58:15.112Z,93.30
2022-12-22T12:01:24.048Z,93.30
2022-12-22T12:04:21.697Z,93.40
2022-12-22T12:07:04.796Z,93.40
2022-12-22T12:09:42.687Z,93.40
2022-12-22T12:12:17.723Z,93.40
2022-12-22T12:14:59.407Z,93.40
2022-12-22T12:17:43.079Z,93.50
2022-12-22T12:20:27.308Z,93.50
2022-12-22T12:23:09.428Z,93.40
2022-12-22T12:25:42.173Z,93.40
2022-12-22T12:28:25.184Z,93.40
2022-12-22T12:30:55.809Z,93.30
2022-12-22T12:33:35.025Z,93.30
2022-12-22T12:36:09.328Z,93.20
2022-12-22T12:41:46.682Z,93.20
2022-12-22T12:44:18.750Z,93.10
2022-12-22T12:47:00.047Z,93.20
2022-12-22T12:50:01.408Z,93.10
2022-12-22T12:53:17.708Z,93.10
2022-12-22T12:56:00.495Z,93.10
2022-12-22T12:58:48.448Z,93.10
2022-12-22T13:01:55.915Z,93.20
2022-12-22T13:05:12.665Z,93.30
2022-12-22T13:08:20.297Z,93.40
2022-12-22T13:11:05.839Z,93.40
2022-12-22T13:13:50.351Z,93.50
2022-12-22T13:16:28.069Z,93.40
2022-12-22T13:18:58.763Z,93.40
2022-12-22T13:24:25.936Z,93.30
2022-12-22T13:27:01.434Z,93.30
2022-12-22T13:29:36.888Z,93.30
2022-12-22T13:32:16.903Z,93.30
2022-12-22T13:35:28.454Z,93.30
2022-12-22T13:37:42.147Z,93.30
2022-12-22T13:40:16.938Z,93.30
2022-12-22T13:42:48.550Z,93.30
2022-12-22T13:45:22.144Z,93.30
2022-12-22T13:47:50.906Z,93.40
2022-12-22T13:50:21.571Z,93.30
2022-12-22T13:52:50.746Z,93.40
2022-12-22T13:55:22.884Z,93.40
2022-12-22T13:57:58.182Z,93.40
2022-12-22T14:00:29.540Z,93.30
2022-12-22T14:02:57.453Z,93.30
2022-12-22T14:05:31.863Z,93.20
2022-12-22T14:08:03.927Z,93.20
2022-12-22T14:10:38.513Z,93.10
2022-12-22T14:13:13.695Z,93.00
2022-12-22T14:15:41.494Z,93.00
2022-12-22T14:18:15.570Z,92.90
2022-12-22T14:20:46.285Z,92.80
2022-12-22T14:23:21.074Z,92.90
2022-12-22T14:25:50.748Z,92.90
2022-12-22T14:28:24.038Z,92.90
2022-12-22T14:30:54.666Z,92.80
2022-12-22T14:33:30.999Z,92.80
2022-12-22T14:36:13.648Z,92.80
2022-12-22T14:38:43.478Z,92.70
2022-12-22T14:41:33.666Z,92.70
2022-12-22T14:44:03.500Z,92.70
2022-12-22T14:46:38.469Z,92.70
2022-12-22T14:49:07.033Z,92.70
2022-12-22T14:51:34.779Z,92.70
2022-12-22T14:54:03.636Z,92.70
2022-12-22T14:56:31.341Z,92.70
2022-12-22T14:59:23.639Z,92.80
2022-12-22T15:01:58.885Z,92.80
2022-12-22T15:04:26.964Z,92.80
2022-12-22T15:07:07.200Z,92.90
2022-12-22T15:10:13.790Z,93.00
2022-12-22T15:12:22.727Z,92.90
2022-12-22T15:14:51.858Z,92.90
2022-12-22T15:17:23.433Z,92.90
2022-12-22T15:19:52.153Z,92.90
2022-12-22T15:22:20.050Z,93.30
2022-12-22T15:24:48.042Z,93.00
2022-12-22T15:27:15.757Z,92.90
2022-12-22T15:29:43.532Z,92.90
2022-12-22T15:32:14.194Z,92.90
2022-12-22T15:34:42.001Z,92.90
2022-12-22T15:37:12.828Z,92.90
2022-12-22T15:39:40.849Z,92.90
2022-12-22T15:42:08.613Z,92.90
2022-12-22T15:44:38.874Z,92.90
2022-12-22T15:47:07.337Z,92.90
2022-12-22T15:49:36.499Z,92.80
2022-12-22T15:52:05.637Z,92.80
2022-12-22T15:54:33.770Z,92.90
2022-12-22T15:57:02.249Z,92.90
2022-12-22T15:59:30.482Z,92.90
2022-12-22T16:02:01.918Z,92.90
2022-12-22T16:04:30.481Z,92.90
2022-12-22T16:07:00.287Z,92.90
2022-12-22T16:09:32.529Z,92.90
2022-12-22T16:12:00.369Z,92.90
2022-12-22T16:14:32.380Z,92.90
2022-12-22T16:17:03.075Z,92.90
2022-12-22T16:19:30.886Z,92.90
2022-12-22T16:22:00.041Z,92.90
2022-12-22T16:24:30.582Z,92.90
2022-12-22T16:27:00.392Z,92.90
2022-12-22T16:29:28.271Z,92.90
2022-12-22T16:32:17.706Z,92.90
2022-12-22T16:34:46.041Z,92.90
2022-12-22T16:37:15.121Z,93.00
2022-12-22T16:39:42.902Z,92.90
2022-12-22T16:45:02.849Z,93.00
2022-12-22T16:47:36.061Z,93.00
2022-12-22T16:50:04.378Z,93.00
2022-12-22T16:52:39.644Z,93.00
2022-12-22T16:55:14.414Z,93.00
2022-12-22T16:57:42.144Z,93.00
2022-12-22T17:00:17.827Z,93.10
2022-12-22T17:02:49.396Z,93.00
2022-12-22T17:05:25.948Z,93.10
2022-12-22T17:07:55.967Z,93.10
2022-12-22T17:10:24.151Z,93.10
2022-12-22T17:12:55.371Z,93.10
2022-12-22T17:15:24.882Z,93.10
2022-12-22T17:17:53.251Z,93.10
2022-12-22T17:20:22.477Z,93.10
2022-12-22T17:22:54.515Z,93.10
2022-12-22T17:25:26.961Z,93.10
2022-12-22T17:27:55.833Z,93.10
2022-12-22T17:30:26.116Z,93.10
2022-12-22T17:32:54.247Z,93.10
2022-12-22T17:35:24.715Z,93.00
2022-12-22T17:37:53.339Z,93.00
2022-12-22T17:40:26.407Z,93.00
2022-12-22T17:42:55.078Z,93.00
2022-12-22T17:45:23.052Z,93.00
2022-12-22T17:47:50.994Z,93.00
2022-12-22T17:50:20.777Z,93.00
2022-12-22T17:52:48.830Z,93.00
2022-12-22T17:56:05.238Z,93.00
2022-12-22T17:58:14.818Z,93.00
2022-12-22T18:00:43.001Z,93.00
2022-12-22T18:03:13.832Z,93.00
2022-12-22T18:05:44.100Z,93.00
2022-12-22T18:08:15.992Z,93.00
2022-12-22T18:10:44.274Z,92.90
2022-12-22T18:13:18.601Z,92.90
2022-12-22T18:15:47.347Z,92.90
2022-12-22T18:18:16.480Z,92.90
2022-12-22T18:20:45.525Z,92.90
2022-12-22T18:23:17.675Z,92.90
2022-12-22T18:25:45.381Z,93.00
2022-12-22T18:28:17.024Z,93.00
2022-12-22T18:30:45.159Z,93.00
2022-12-22T18:33:14.331Z,93.10
2022-12-22T18:35:43.253Z,93.10
2022-12-22T18:38:24.412Z,93.10
2022-12-22T18:40:52.259Z,93.10
2022-12-22T18:43:21.518Z,93.10
2022-12-22T18:45:49.378Z,93.10
2022-12-22T18:48:17.490Z,93.10
2022-12-22T18:50:45.293Z,93.00
2022-12-22T18:53:25.282Z,93.00
2022-12-22T18:55:53.203Z,93.10
2022-12-22T18:58:22.496Z,93.10
2022-12-22T19:00:51.385Z,93.10
2022-12-22T19:03:22.120Z,93.10
2022-12-22T19:05:50.405Z,93.10
2022-12-22T19:08:19.571Z,93.10
2022-12-22T19:10:49.711Z,93.10
2022-12-22T19:13:23.980Z,93.10
2022-12-22T19:15:52.525Z,93.10
2022-12-22T19:18:26.579Z,93.00
2022-12-22T19:20:55.828Z,93.00
2022-12-22T19:23:25.585Z,92.90
2022-12-22T19:25:56.066Z,92.90
2022-12-22T19:28:31.403Z,92.90
2022-12-22T19:30:59.332Z,92.80
2022-12-22T19:33:32.967Z,92.70
2022-12-22T19:36:01.214Z,92.70
2022-12-22T19:38:30.358Z,92.70
2022-12-22T19:41:01.379Z,92.70
2022-12-22T19:43:31.381Z,92.80
2022-12-22T19:45:59.440Z,92.90
2022-12-22T19:48:28.274Z,93.00
2022-12-22T19:50:56.409Z,93.00
2022-12-22T19:53:24.131Z,93.00
2022-12-22T19:55:53.466Z,93.00
2022-12-22T19:58:24.819Z,93.00
2022-12-22T20:00:56.803Z,93.00
2022-12-22T20:03:26.865Z,93.00
2022-12-22T20:05:54.949Z,93.00
2022-12-22T20:08:22.808Z,93.10
2022-12-22T20:10:58.085Z,93.00
2022-12-22T20:13:28.400Z,93.00
2022-12-22T20:15:57.599Z,93.00
2022-12-22T20:18:27.414Z,93.00
2022-12-22T20:21:01.467Z,93.00
2022-12-22T20:23:33.131Z,93.10
2022-12-22T20:26:04.133Z,93.00
2022-12-22T20:28:35.043Z,93.00
2022-12-22T20:31:05.168Z,93.00
2022-12-22T20:33:33.577Z,93.00
2022-12-22T20:36:02.958Z,93.00
2022-12-22T20:38:35.286Z,93.00
2022-12-22T20:41:04.085Z,93.00
2022-12-22T20:43:33.840Z,93.00
2022-12-22T20:46:08.288Z,93.00
2022-12-22T20:48:38.507Z,93.00
2022-12-22T20:51:08.574Z,93.00
2022-12-22T20:53:36.365Z,93.00
2022-12-22T20:56:04.498Z,93.00
2022-12-22T20:58:36.062Z,93.00
2022-12-22T21:01:05.416Z,93.10
2022-12-22T21:03:33.207Z,93.10
2022-12-22T21:06:00.970Z,93.10
2022-12-22T21:08:28.968Z,93.10
2022-12-22T21:10:57.052Z,93.10
2022-12-22T21:13:25.246Z,93.10
2022-12-22T21:15:53.483Z,93.10
2022-12-22T21:18:24.890Z,93.10
2022-12-22T21:20:53.020Z,93.10
2022-12-22T21:23:20.794Z,93.10
2022-12-22T21:25:52.671Z,93.10
2022-12-22T21:28:25.051Z,93.10
2022-12-22T21:30:52.817Z,93.10
2022-12-22T21:33:23.423Z,93.10
2022-12-22T21:35:53.226Z,93.10
2022-12-22T21:38:23.104Z,93.10
2022-12-22T21:40:51.013Z,93.00
2022-12-22T21:43:18.815Z,93.00
2022-12-22T21:45:46.946Z,93.00
2022-12-22T21:48:18.778Z,93.00
2022-12-22T21:50:50.138Z,92.90
2022-12-22T21:53:22.287Z,93.00
2022-12-22T21:55:50.737Z,93.00
2022-12-22T21:58:18.482Z,93.00
2022-12-22T22:00:49.100Z,93.00
2022-12-22T22:03:17.538Z,93.00
2022-12-22T22:05:47.919Z,93.00
2022-12-22T22:08:15.634Z,93.00
2022-12-22T22:10:44.630Z,93.00
2022-12-22T22:13:14.574Z,93.00
2022-12-22T22:15:42.606Z,93.00
2022-12-22T22:18:16.252Z,93.10
2022-12-22T22:20:44.352Z,93.00
2022-12-22T22:23:15.515Z,93.00
2022-12-22T22:25:43.267Z,93.00
2022-12-22T22:28:11.484Z,93.00
2022-12-22T22:30:41.796Z,92.90
2022-12-22T22:33:09.669Z,92.90
2022-12-22T22:35:40.787Z,92.90
2022-12-22T22:38:11.279Z,92.90
2022-12-22T22:40:43.083Z,92.80
2022-12-22T22:43:10.979Z,92.80
2022-12-22T22:45:38.981Z,92.80
2022-12-22T22:48:10.908Z,92.80
2022-12-22T22:50:41.465Z,92.80
2022-12-22T22:53:09.231Z,92.80
2022-12-22T22:55:36.939Z,92.80
2022-12-22T22:58:06.025Z,92.80
2022-12-22T23:00:33.901Z,92.80
2022-12-22T23:03:01.748Z,92.80
2022-12-22T23:05:29.603Z,92.80
2022-12-22T23:07:57.333Z,92.90
2022-12-22T23:10:25.143Z,92.90
2022-12-22T23:12:52.902Z,92.90
2022-12-22T23:15:22.074Z,92.90
2022-12-22T23:17:51.756Z,92.90
2022-12-22T23:20:19.692Z,92.90
2022-12-22T23:22:47.396Z,92.90
2022-12-22T23:25:15.296Z,92.90
2022-12-22T23:27:43.024Z,92.90
2022-12-22T23:30:11.814Z,92.90
2022-12-22T23:32:40.896Z,93.00
2022-12-22T23:35:09.237Z,93.00
2022-12-22T23:37:36.999Z,93.00
2022-12-22T23:40:42.036Z,93.00
2022-12-22T23:42:56.784Z,93.00
2022-12-22T23:45:25.059Z,93.00
2022-12-22T23:47:54.287Z,93.00
2022-12-22T23:50:22.242Z,93.00
2022-12-22T23:52:50.068Z,93.00
2022-12-22T23:55:18.027Z,93.00
2022-12-22T23:57:45.853Z,93.00
